createdAt,value
2023-02-03T00:04:10.266Z,36.80
2023-02-03T00:09:15.476Z,36.50
2023-02-03T00:14:18.316Z,36.92
2023-02-03T00:19:21.199Z,36.55
2023-02-03T00:24:25.475Z,36.90
2023-02-03T00:29:28.530Z,36.38
2023-02-03T00:34:32.203Z,36.53
2023-02-03T00:39:38.888Z,38.45
2023-02-03T00:44:41.880Z,37.75
2023-02-03T00:49:44.740Z,37.60
2023-02-03T00:54:48.928Z,36.75
2023-02-03T00:59:54.183Z,36.38
2023-02-03T01:04:57.054Z,36.63
2023-02-03T01:10:01.226Z,38.30
2023-02-03T01:15:04.134Z,36.40
2023-02-03T01:20:07.874Z,37.05
2023-02-03T01:25:12.583Z,36.72
2023-02-03T01:30:15.825Z,36.25
2023-02-03T01:35:18.686Z,36.63
2023-02-03T01:40:22.970Z,38.88
2023-02-03T01:45:26.030Z,36.60
2023-02-03T01:50:32.898Z,35.85
2023-02-03T01:55:40.812Z,36.30
2023-02-03T02:00:44.639Z,36.38
2023-02-03T02:05:51.529Z,36.25
2023-02-03T02:10:55.979Z,36.75
2023-02-03T02:16:06.535Z,36.40
2023-02-03T02:21:33.470Z,35.55
2023-02-03T02:26:55.728Z,35.63
2023-02-03T02:32:13.727Z,35.90
2023-02-03T02:37:25.505Z,36.42
2023-02-03T02:42:36.144Z,36.20
2023-02-03T02:47:40.549Z,35.80
2023-02-03T02:52:47.014Z,35.88
2023-02-03T02:57:50.952Z,36.05
2023-02-03T03:02:57.524Z,35.55
2023-02-03T03:08:03.204Z,35.72
2023-02-03T03:13:10.266Z,35.67
2023-02-03T03:18:20.195Z,35.67
2023-02-03T03:23:28.415Z,36.10
2023-02-03T03:28:37.894Z,36.00
2023-02-03T03:33:42.463Z,36.58
2023-02-03T03:38:51.147Z,35.88
2023-02-03T03:43:57.329Z,35.30
2023-02-03T03:49:21.445Z,35.83
2023-02-03T03:54:26.297Z,35.60
2023-02-03T03:59:32.421Z,36.13
2023-02-03T04:04:38.720Z,36.03
2023-02-03T04:09:42.929Z,35.58
2023-02-03T04:14:45.834Z,35.45
2023-02-03T04:19:50.362Z,35.47
2023-02-03T04:24:53.279Z,35.55
2023-02-03T04:29:56.163Z,35.72
2023-02-03T04:35:00.433Z,36.15
2023-02-03T04:40:03.701Z,36.10
2023-02-03T04:45:07.980Z,36.40
2023-02-03T04:50:12.398Z,36.72
2023-02-03T04:55:15.432Z,36.03
2023-02-03T05:00:18.763Z,36.10
2023-02-03T05:05:23.253Z,36.33
2023-02-03T05:10:26.562Z,37.78
2023-02-03T05:15:29.600Z,36.47
2023-02-03T05:20:33.851Z,36.50
2023-02-03T05:25:36.809Z,36.80
2023-02-03T05:30:40.011Z,35.95
2023-02-03T05:35:51.649Z,36.00
2023-02-03T05:41:12.549Z,37.55
2023-02-03T05:46:15.453Z,36.72
2023-02-03T05:51:19.787Z,36.35
2023-02-03T05:56:22.709Z,36.55
2023-02-03T06:01:26.065Z,36.85
2023-02-03T06:06:33.920Z,36.80
2023-02-03T06:11:37.544Z,36.70
2023-02-03T06:16:40.505Z,36.28
2023-02-03T06:21:44.780Z,36.83
2023-02-03T06:26:47.864Z,36.22
2023-02-03T06:31:52.947Z,37.05
2023-02-03T06:36:57.254Z,37.78
2023-02-03T06:42:00.200Z,36.97
2023-02-03T06:47:03.186Z,36.50
2023-02-03T06:52:07.367Z,37.35
2023-02-03T06:57:10.236Z,37.10
2023-02-03T07:02:13.617Z,37.25
2023-02-03T07:07:18.197Z,36.22
2023-02-03T07:12:21.162Z,36.08
2023-02-03T07:17:24.093Z,37.08
2023-02-03T07:22:28.408Z,37.40
2023-02-03T07:27:31.346Z,36.22
2023-02-03T07:32:34.223Z,36.33
2023-02-03T07:37:38.476Z,36.70
2023-02-03T07:42:44.784Z,36.70
2023-02-03T07:47:47.664Z,37.00
2023-02-03T07:52:53.472Z,36.75
2023-02-03T07:57:56.398Z,36.50
2023-02-03T08:02:59.602Z,36.15
2023-02-03T08:08:03.863Z,37.17
2023-02-03T08:13:06.773Z,36.83
2023-02-03T08:18:09.781Z,36.67
2023-02-03T08:23:14.102Z,36.42
2023-02-03T08:28:17.122Z,36.65
2023-02-03T08:33:20.248Z,36.10
2023-02-03T08:38:24.445Z,38.13
2023-02-03T08:43:27.430Z,39.38
2023-02-03T08:48:30.336Z,38.70
2023-02-03T08:53:41.677Z,37.03
2023-02-03T08:58:44.565Z,36.92
2023-02-03T09:03:47.481Z,36.17
2023-02-03T09:08:51.859Z,36.22
2023-02-03T09:13:56.823Z,36.90
2023-02-03T09:18:59.846Z,37.10
2023-02-03T09:24:04.567Z,36.78
2023-02-03T09:29:07.887Z,36.45
2023-02-03T09:34:10.953Z,37.55
2023-02-03T09:39:15.903Z,37.70
2023-02-03T09:44:23.826Z,37.33
2023-02-03T09:49:39.644Z,36.97
2023-02-03T09:54:51.234Z,37.35
2023-02-03T09:59:56.729Z,37.38
2023-02-03T10:05:05.060Z,36.53
2023-02-03T10:10:18.071Z,37.95
2023-02-03T10:16:01.057Z,36.55
2023-02-03T10:21:07.115Z,36.30
2023-02-03T10:26:17.409Z,36.72
2023-02-03T10:31:23.278Z,37.28
2023-02-03T10:36:36.037Z,36.40
2023-02-03T10:41:46.419Z,50.80
2023-02-03T10:46:49.276Z,36.72
2023-02-03T10:51:55.487Z,36.50
2023-02-03T10:57:11.471Z,36.67
2023-02-03T11:02:25.825Z,36.40
2023-02-03T11:07:31.713Z,36.78
2023-02-03T11:12:35.994Z,36.15
2023-02-03T11:17:45.608Z,36.38
2023-02-03T11:22:49.873Z,36.90
2023-02-03T11:27:55.428Z,37.00
2023-02-03T11:33:01.603Z,36.65
2023-02-03T11:38:32.187Z,37.30
2023-02-03T11:43:36.630Z,38.17
2023-02-03T11:48:45.060Z,36.78
2023-02-03T11:54:03.780Z,36.75
2023-02-03T11:59:35.619Z,36.92
2023-02-03T12:04:55.070Z,37.13
2023-02-03T12:10:05.265Z,37.35
2023-02-03T12:15:25.807Z,37.72
2023-02-03T12:20:42.728Z,37.20
2023-02-03T12:25:57.121Z,38.25
2023-02-03T12:31:05.436Z,40.47
2023-02-03T12:36:16.449Z,37.20
2023-02-03T12:41:23.874Z,52.25
2023-02-03T12:46:35.286Z,39.35
2023-02-03T12:51:50.753Z,37.92
2023-02-03T12:57:13.495Z,37.70
2023-02-03T13:02:26.641Z,37.72
2023-02-03T13:07:39.919Z,37.38
2023-02-03T13:12:46.925Z,37.47
2023-02-03T13:18:10.943Z,37.85
2023-02-03T13:23:17.190Z,37.83
2023-02-03T13:28:33.085Z,39.50
2023-02-03T13:34:02.337Z,37.63
2023-02-03T13:39:40.007Z,37.63
2023-02-03T13:44:46.205Z,39.63
2023-02-03T13:49:59.780Z,37.42
2023-02-03T13:55:04.070Z,37.15
2023-02-03T14:00:28.981Z,39.05
2023-02-03T14:05:49.151Z,36.75
2023-02-03T14:11:27.604Z,36.35
2023-02-03T14:16:36.584Z,37.90
2023-02-03T14:21:48.021Z,36.75
2023-02-03T14:26:53.084Z,38.92
2023-02-03T14:32:13.772Z,37.20
2023-02-03T14:37:30.185Z,36.83
2023-02-03T14:43:10.119Z,38.30
2023-02-03T14:48:29.906Z,37.80
2023-02-03T14:53:50.144Z,36.63
2023-02-03T14:58:56.433Z,43.63
2023-02-03T15:04:22.525Z,40.63
2023-02-03T15:09:32.436Z,38.72
2023-02-03T15:14:37.810Z,37.65
2023-02-03T15:19:43.579Z,37.92
2023-02-03T15:24:47.878Z,37.15
2023-02-03T15:29:50.967Z,37.70
2023-02-03T15:34:59.844Z,36.65
2023-02-03T15:40:09.676Z,37.42
2023-02-03T15:45:23.393Z,37.78
2023-02-03T15:50:31.740Z,37.00
2023-02-03T15:55:40.506Z,64.38
2023-02-03T16:00:43.920Z,38.13
2023-02-03T16:05:50.900Z,38.42
2023-02-03T16:10:55.727Z,41.58
2023-02-03T16:16:06.344Z,41.90
2023-02-03T16:21:32.268Z,52.08
2023-02-03T16:26:39.842Z,44.78
2023-02-03T16:32:04.535Z,42.42
2023-02-03T16:37:30.725Z,61.17
2023-02-03T16:42:59.620Z,71.57
2023-02-03T16:48:27.710Z,96.30
2023-02-03T16:53:32.353Z,81.60
2023-02-03T16:58:39.975Z,143.80
2023-02-03T17:03:49.392Z,63.75
2023-02-03T17:08:52.968Z,44.65
2023-02-03T17:13:58.472Z,50.60
2023-02-03T17:19:01.436Z,44.80
2023-02-03T17:24:04.575Z,63.83
2023-02-03T17:29:10.655Z,66.18
2023-02-03T17:34:32.095Z,42.20
2023-02-03T17:55:42.002Z,37.83
2023-02-03T18:00:46.246Z,37.22
2023-02-03T18:05:52.681Z,37.72
2023-02-03T18:10:56.317Z,38.95
2023-02-03T18:16:01.070Z,37.38
2023-02-03T18:21:04.751Z,36.80
2023-02-03T18:26:09.096Z,37.50
2023-02-03T18:31:15.591Z,37.05
2023-02-03T18:36:19.078Z,36.45
2023-02-03T18:41:23.992Z,37.42
2023-02-03T18:46:30.563Z,36.70
2023-02-03T18:51:41.702Z,37.13
2023-02-03T18:56:44.575Z,37.05
2023-02-03T19:01:48.872Z,37.33
2023-02-03T19:06:52.675Z,37.90
2023-02-03T19:11:57.673Z,36.88
2023-02-03T19:17:02.061Z,36.75
2023-02-03T19:22:09.069Z,38.00
2023-02-03T19:27:12.564Z,38.08
2023-02-03T19:32:21.031Z,37.88
2023-02-03T19:37:24.070Z,37.95
2023-02-03T19:42:27.018Z,37.50
2023-02-03T19:47:31.363Z,37.70
2023-02-03T19:52:34.250Z,37.53
2023-02-03T19:57:37.275Z,37.47
2023-02-03T20:02:41.804Z,37.97
2023-02-03T20:07:44.682Z,37.58
2023-02-03T20:12:47.650Z,36.95
2023-02-03T20:17:51.854Z,38.33
2023-02-03T20:22:54.775Z,37.35
2023-02-03T20:27:59.571Z,37.10
2023-02-03T20:33:04.994Z,37.67
2023-02-03T20:38:07.908Z,39.92
2023-02-03T20:43:17.364Z,40.35
2023-02-03T20:48:24.014Z,37.80
2023-02-03T20:53:27.621Z,37.65
2023-02-03T20:58:34.971Z,39.08
2023-02-03T21:03:56.671Z,37.90
2023-02-03T21:09:06.694Z,36.90
2023-02-03T21:14:20.483Z,36.97
2023-02-03T21:19:32.341Z,37.05
2023-02-03T21:24:37.645Z,37.30
2023-02-03T21:29:41.671Z,37.20
2023-02-03T21:34:46.696Z,37.53
2023-02-03T21:39:50.421Z,37.35
2023-02-03T21:44:53.459Z,37.08
2023-02-03T21:50:01.104Z,37.72
2023-02-03T21:55:11.221Z,37.53
2023-02-03T22:00:38.922Z,37.75
2023-02-03T22:05:43.152Z,37.78
2023-02-03T22:10:46.175Z,38.05
2023-02-03T22:15:50.434Z,37.75
2023-02-03T22:20:54.897Z,37.72
2023-02-03T22:25:59.095Z,37.58
2023-02-03T22:31:02.914Z,37.13
2023-02-03T22:36:08.638Z,37.60
2023-02-03T22:41:12.979Z,36.97
2023-02-03T22:46:16.041Z,37.45
2023-02-03T22:51:20.352Z,36.85
2023-02-03T22:56:23.759Z,37.35
2023-02-03T23:01:26.781Z,37.25
2023-02-03T23:06:30.985Z,37.38
2023-02-03T23:11:33.828Z,37.25
2023-02-03T23:16:36.766Z,36.80
2023-02-03T23:21:41.113Z,37.92
2023-02-03T23:26:43.984Z,37.03
2023-02-03T23:31:46.977Z,37.72
2023-02-03T23:36:51.280Z,36.90
2023-02-03T23:41:54.214Z,36.72
2023-02-03T23:46:57.113Z,37.30
2023-02-03T23:52:01.328Z,36.42
2023-02-03T23:57:04.838Z,38.40
